Accueil
METAR-TAF:

METAR-TAF

Aéroports :

DeRidder, Louisiane, États-Unis

latitude: 30-49-54N, longitude: 093-20-23W, altitude: 63 m

Observation

Le bulletin a été fait il y a 23 minutes, à 18:15 UTC
Vent 7 kt de nord-est
Température 30°C
Humidité 46%
Pression 1016 hPa
Visibilité: 16.1 km
Quelques nuages à une hauteur de 6500 ft
Nuages épars à une hauteur de 32000 ft
Nuages épars à une hauteur de 37000 ft

METAR: KDRI 281815Z AUTO 05007KT 10SM FEW065 SCT320 SCT370 30/17 A3000 RMK AO2 T03010167 $

Heure: 13:38 (18:38 UTC)


TAF: absent

Observations et prévisions météorologiques de plus de 4000 aéroports (messages METAR et TAF).

Les stations disponibles sont représentées par des disques jaunes et rouges sur la carte.

Passer la souris dessus pour voir le nom de la station.

Cliquer dessus pour voir les observations et prévisions météorologiques.

Pour changer de carte: cliquez sur les boutons verts avec une croix noire pour zoomer, sur le bouton vert avec un tiret pour effectuer un zoom arrière, ou sur les flèches vertes pour les cartes adjacentes.


METAR-TAF: